Bookmark and Share
Track history (hours):
 

Lady Cutler

Last reported at 2014-Apr-18 20:32 UTC. Time now 2014-Apr-18 20:56 UTC.
Position S 37°49' E 144°57'.

Length 39 m.

Type: Pleasure craft. MMSI: 503334800.

NotesDate/timePositionNaut miles runAvg speedWind from/ knotsBaromVisibWave heightAir tempDewpointWater temp
2014-Apr-18 20:32S 37°49' E 144°57'0 0.0
2014-Apr-18 19:32S 37°49' E 144°57'0 0.0
2014-Apr-18 18:32S 37°49' E 144°57'0 0.0
2014-Apr-18 17:32S 37°49' E 144°57'0 0.0
2014-Apr-18 16:32S 37°49' E 144°57'0 0.0
2014-Apr-18 15:32S 37°49' E 144°57'0 0.0
2014-Apr-18 14:32S 37°49' E 144°57'0 0.2
2014-Apr-18 13:33S 37°49' E 144°56'2 2.4
2014-Apr-18 12:33S 37°51' E 144°54'0 0.4
2014-Apr-18 11:33S 37°51' E 144°54'3 2.3
2014-Apr-18 10:23S 37°49' E 144°57'0 0.0
2014-Apr-18 05:23S 37°49' E 144°57'0 0.0
2014-Apr-18 04:29S 37°49' E 144°57'0 0.0
2014-Apr-18 03:29S 37°49' E 144°57'0 0.0
2014-Apr-18 02:29S 37°49' E 144°57'0 0.0
2014-Apr-18 01:29S 37°49' E 144°57'0 0.0
2014-Apr-18 00:29S 37°49' E 144°57'0 0.0
2014-Apr-17 23:29S 37°49' E 144°57'0 0.0
2014-Apr-17 22:29S 37°49' E 144°57'0 0.0
2014-Apr-17 21:29S 37°49' E 144°57'0 0.0
2014-Apr-17 20:29S 37°49' E 144°57'0 0.0
2014-Apr-17 19:29S 37°49' E 144°57'0 0.0
2014-Apr-17 18:29S 37°49' E 144°57'0 0.0
2014-Apr-17 17:29S 37°49' E 144°57'0 0.0
2014-Apr-17 16:29S 37°49' E 144°57'0 0.0
2014-Apr-17 15:29S 37°49' E 144°57'0 0.0
2014-Apr-17 14:29S 37°49' E 144°57'0 0.0
2014-Apr-17 13:29S 37°49' E 144°57'0 0.4
2014-Apr-17 12:33S 37°49' E 144°56'3 3.1
2014-Apr-17 11:33S 37°52' E 144°56'1 1.2
2014-Apr-17 10:33S 37°51' E 144°56'2 2.1
2014-Apr-17 09:33S 37°49' E 144°56'0 0.2
2014-Apr-17 08:32S 37°49' E 144°57'0 0.0
2014-Apr-17 07:30S 37°49' E 144°57'0 0.0
2014-Apr-17 06:30S 37°49' E 144°57'0 0.0
2014-Apr-17 05:30S 37°49' E 144°57'0 0.0
2014-Apr-17 04:30S 37°49' E 144°57'0 0.0
2014-Apr-17 03:30S 37°49' E 144°57'0 0.0
2014-Apr-17 02:30S 37°49' E 144°57'0 0.0
2014-Apr-17 01:30S 37°49' E 144°57'0 0.0
2014-Apr-17 00:30S 37°49' E 144°57'0 0.0
2014-Apr-16 23:30S 37°49' E 144°57'0 0.0
2014-Apr-16 22:30S 37°49' E 144°57'0 0.0
2014-Apr-16 21:30S 37°49' E 144°57'0 0.0
2014-Apr-16 20:30S 37°49' E 144°57'0 0.0
2014-Apr-16 19:30S 37°49' E 144°57'0 0.0
2014-Apr-16 18:24S 37°49' E 144°57'0 0.0
2014-Apr-16 17:30S 37°49' E 144°57'0 0.0
2014-Apr-16 16:30S 37°49' E 144°57'0 0.0
2014-Apr-16 15:31S 37°49' E 144°57'0 0.0
2014-Apr-16 14:31S 37°49' E 144°57'0 0.0
2014-Apr-16 13:25S 37°49' E 144°57'0 0.5
2014-Apr-16 12:33S 37°49' E 144°56'3 3.1
2014-Apr-16 11:33S 37°52' E 144°57'3 3.4
2014-Apr-16 10:33S 37°50' E 144°54'2 2.2
2014-Apr-16 09:33S 37°49' E 144°57'0 0.0
2014-Apr-16 08:33S 37°49' E 144°57'0 0.0
2014-Apr-16 07:33S 37°49' E 144°57'0 0.0
2014-Apr-16 06:34S 37°49' E 144°57'0 0.0
2014-Apr-16 05:33S 37°49' E 144°57'0 0.0
2014-Apr-16 04:34S 37°49' E 144°57'0 0.0
2014-Apr-16 03:34S 37°49' E 144°57'0 0.0
2014-Apr-16 02:28S 37°49' E 144°57'0 0.0
2014-Apr-16 01:28S 37°49' E 144°57'0 0.0
2014-Apr-16 00:28S 37°49' E 144°57'0 0.0
2014-Apr-15 23:28S 37°49' E 144°57'0 0.0
2014-Apr-15 22:22S 37°49' E 144°57'0 0.0
2014-Apr-15 21:28S 37°49' E 144°57'0 0.0
2014-Apr-15 20:28S 37°49' E 144°57'0 0.0
2014-Apr-15 19:28S 37°49' E 144°57'0 0.0
2014-Apr-15 18:28S 37°49' E 144°57'0 0.0
2014-Apr-15 17:28S 37°49' E 144°57'0 0.0
2014-Apr-15 16:28S 37°49' E 144°57'0 0.0
2014-Apr-15 15:28S 37°49' E 144°57'0 0.0
2014-Apr-15 14:28S 37°49' E 144°57'0 0.0
2014-Apr-13 15:22S 37°49' E 144°57'0 0.0
2014-Apr-13 14:28S 37°49' E 144°57'0 0.0
2014-Apr-13 13:28S 37°49' E 144°57'0 0.0
2014-Apr-13 12:28S 37°49' E 144°57'0 0.0
2014-Apr-13 11:28S 37°49' E 144°57'0 0.0
2014-Apr-13 10:22S 37°49' E 144°57'0 0.0
2014-Apr-13 09:22S 37°49' E 144°57'0 0.0
2014-Apr-13 08:28S 37°49' E 144°57'0 0.0
2014-Apr-13 07:28S 37°49' E 144°57'0 0.0
2014-Apr-13 06:28S 37°49' E 144°57'0 0.0
2014-Apr-13 05:28S 37°49' E 144°57'0 0.0
2014-Apr-13 04:28S 37°49' E 144°57'0 0.0
2014-Apr-13 03:28S 37°49' E 144°57'0 0.0
2014-Apr-13 02:28S 37°49' E 144°57'0 0.0
2014-Apr-13 01:28S 37°49' E 144°57'0 0.0
2014-Apr-13 00:28S 37°49' E 144°57'0 0.0
2014-Apr-12 23:22S 37°49' E 144°57'0 0.0
2014-Apr-12 22:28S 37°49' E 144°57'0 0.0
2014-Apr-12 21:28S 37°49' E 144°57'0 0.0
2014-Apr-12 20:28S 37°49' E 144°57'0 0.0
2014-Apr-12 19:28S 37°49' E 144°57'0 0.0
2014-Apr-12 18:28S 37°49' E 144°57'0 0.0
2014-Apr-12 17:28S 37°49' E 144°57'0 0.0
2014-Apr-12 16:28S 37°49' E 144°57'0 0.0
2014-Apr-12 15:28S 37°49' E 144°57'0 0.0
2014-Apr-12 14:28S 37°49' E 144°57'0 0.0
2014-Apr-12 13:33S 37°49' E 144°57'2 2.0
2014-Apr-12 12:33S 37°49' E 144°54'2 2.1
2014-Apr-12 11:33S 37°52' E 144°55'3 2.9
2014-Apr-12 10:33S 37°49' E 144°56'0 0.2
2014-Apr-12 09:30S 37°49' E 144°57'0 0.0
2014-Apr-12 08:24S 37°49' E 144°57'0 0.0
2014-Apr-12 07:24S 37°49' E 144°57'0 0.0
2014-Apr-12 06:30S 37°49' E 144°57'0 0.0
2014-Apr-12 05:30S 37°49' E 144°57'0 0.0
2014-Apr-12 04:30S 37°49' E 144°57'0 0.0
2014-Apr-12 03:30S 37°49' E 144°57'0 0.0
2014-Apr-12 02:30S 37°49' E 144°57'0 0.0
2014-Apr-12 01:30S 37°49' E 144°57'0 0.0
2014-Apr-12 00:30S 37°49' E 144°57'0 0.0
2014-Apr-11 23:30S 37°49' E 144°57'0 0.0
2014-Apr-11 22:30S 37°49' E 144°57'0 0.0
2014-Apr-11 21:30S 37°49' E 144°57'0 0.0
2014-Apr-11 20:30S 37°49' E 144°57'0 0.0
2014-Apr-11 19:30S 37°49' E 144°57'0 0.0
2014-Apr-11 18:30S 37°49' E 144°57'0 0.0
2014-Apr-11 17:30S 37°49' E 144°57'0 0.0
2014-Apr-11 16:30S 37°49' E 144°57'0 0.0
2014-Apr-11 15:30S 37°49' E 144°57'0 0.0
2014-Apr-11 14:30S 37°49' E 144°57'0 0.0
2014-Apr-11 13:30S 37°49' E 144°57'0 0.0
2014-Apr-11 12:30S 37°49' E 144°57'2 2.6
2014-Apr-11 11:33S 37°50' E 144°54'0 0.2
2014-Apr-11 10:33S 37°50' E 144°54'3 2.5
2014-Apr-11 09:31S 37°49' E 144°57'0 0.0
2014-Apr-11 08:31S 37°49' E 144°57'0 0.0
2014-Apr-11 07:31S 37°49' E 144°57'0 0.0
2014-Apr-11 06:31S 37°49' E 144°57'0 0.0
2014-Apr-11 05:31S 37°49' E 144°57'0 0.0
2014-Apr-11 04:31S 37°49' E 144°57'0 0.0
2014-Apr-11 03:31S 37°49' E 144°57'0 0.0
2014-Apr-11 02:31S 37°49' E 144°57'0 0.0
2014-Apr-11 01:31S 37°49' E 144°57'0 0.0
2014-Apr-11 00:31S 37°49' E 144°57'0 0.0
2014-Apr-10 23:19S 37°49' E 144°57'0 0.0
2014-Apr-10 22:31S 37°49' E 144°57'0 0.0
2014-Apr-10 21:31S 37°49' E 144°57'0 0.0
2014-Apr-10 20:31S 37°49' E 144°57'0 0.0
2014-Apr-10 19:27S 37°49' E 144°57'0 0.0
2014-Apr-10 18:33S 37°49' E 144°57'0 0.0
2014-Apr-10 17:33S 37°49' E 144°57'0 0.0
2014-Apr-10 16:33S 37°49' E 144°57'0 0.0
2014-Apr-10 15:33S 37°49' E 144°57'0 0.0
2014-Apr-10 14:33S 37°49' E 144°57'0 0.0
2014-Apr-10 13:33S 37°49' E 144°57'0 0.3
2014-Apr-10 12:33S 37°49' E 144°56'2 2.4
2014-Apr-10 11:33S 37°51' E 144°55'2 1.9
2014-Apr-10 10:32S 37°49' E 144°55'1 1.5
2014-Apr-10 09:33S 37°49' E 144°57'0 0.0
2014-Apr-10 08:33S 37°49' E 144°57'0 0.0
2014-Apr-10 07:33S 37°49' E 144°57'0 0.0
2014-Apr-10 06:33S 37°49' E 144°57'0 0.0
2014-Apr-10 05:27S 37°49' E 144°57'0 0.0
2014-Apr-10 04:31S 37°49' E 144°57'0 0.0
2014-Apr-10 03:31S 37°49' E 144°57'0 0.0
2014-Apr-10 02:31S 37°49' E 144°57'0 0.0
2014-Apr-10 01:32S 37°49' E 144°57'0 0.0
2014-Apr-10 00:32S 37°49' E 144°57'0 0.0
2014-Apr-09 23:32S 37°49' E 144°57'0 0.0
2014-Apr-09 22:32S 37°49' E 144°57'0 0.0
2014-Apr-09 21:26S 37°49' E 144°57'0 0.0
2014-Apr-09 20:32S 37°49' E 144°57'0 0.0
2014-Apr-09 19:28S 37°49' E 144°57'0 0.0
2014-Apr-09 18:29S 37°49' E 144°57'0 0.0
2014-Apr-09 17:29S 37°49' E 144°57'0 0.0
2014-Apr-09 16:29S 37°49' E 144°57'0 0.0
2014-Apr-09 15:23S 37°49' E 144°57'0 0.0
2014-Apr-09 14:29S 37°49' E 144°57'0 0.0
2014-Apr-09 13:29S 37°49' E 144°57'0 0.3
2014-Apr-09 12:33S 37°49' E 144°56'2 2.2
2014-Apr-09 11:33S 37°51' E 144°54'0 0.4
2014-Apr-09 10:33S 37°50' E 144°54'3 2.5
2014-Apr-09 09:29S 37°49' E 144°57'0 0.0
2014-Apr-09 08:29S 37°49' E 144°57'0 0.0
2014-Apr-09 07:29S 37°49' E 144°57'0 0.0
2014-Apr-09 06:29S 37°49' E 144°57'0 0.0
2014-Apr-09 05:29S 37°49' E 144°57'0 0.0
2014-Apr-09 04:29S 37°49' E 144°57'0 0.0
2014-Apr-09 03:17S 37°49' E 144°57'0 0.0
2014-Apr-09 02:29S 37°49' E 144°57'0 0.0
2014-Apr-09 01:29S 37°49' E 144°57'0 0.0
2014-Apr-09 00:11S 37°49' E 144°57'0 0.0
2014-Apr-08 21:29S 37°49' E 144°57'  

Dump ship's entire track history

sailing weather and tide predictions

Lady Cutler — VKV7020 — position and weather